Time;durP1;ratioP1;P1;durP2;ratioP2;P2;SDS_P1;SDS_P2;PMS_P1;PMS_P2;Temp;Humidity;BMP_temperature;BMP_pressure;BME280_temperature;BME280_humidity;BME280_pressure;Samples;Min_cycle;Max_cycle;Signal;HPM_P1;HPM_P2
2023/03/31 00:02:00;;;;;;;;;;;;;;;;;;5047690;28;4526;-63
2023/03/31 00:04:26;;;;;;;;;;;;;;;;;;5059792;28;4698;-63
2023/03/31 00:06:53;;;;;;;;;;;;;;;;;;5048666;28;4918;-61
2023/03/31 00:09:20;;;;;;;;;;;;;;;;;;5046103;28;4608;-61
2023/03/31 00:11:46;;;;;;;;;;;;;;;;;;5047925;28;4631;-71
2023/03/31 00:14:11;;;;;;;;;;;;;;;;;;5051505;28;4647;-62
2023/03/31 00:16:36;;;;;;;;;;;;;;;;;;5054660;28;1035;-60
2023/03/31 00:19:02;;;;;;;;;;;;;;;;;;5050023;28;4949;-63
2023/03/31 00:21:33;;;;;;;;;;;;;;;;;;5051987;28;4454;-61
2023/03/31 00:23:59;;;;;;;;;;;;;;;;;;5057681;28;5257;-62
2023/03/31 00:26:25;;;;;;;;;;;;;;;;;;5059758;28;5092;-64
2023/03/31 00:28:50;;;;;;;;;;;;;;;;;;5047365;28;3197;-61
2023/03/31 00:31:16;;;;;;;;;;;;;;;;;;5049861;28;4685;-63
2023/03/31 00:33:41;;;;;;;;;;;;;;;;;;5046014;28;5052;-62
2023/03/31 00:36:06;;;;;;;;;;;;;;;;;;5052074;28;4470;-61
2023/03/31 00:38:31;;;;;;;;;;;;;;;;;;5056430;28;4484;-62
2023/03/31 00:40:57;;;;;;;;;;;;;;;;;;5057554;28;3254;-64
2023/03/31 00:43:30;;;;;;;;;;;;;;;;;;5081727;28;4590;-61
2023/03/31 00:45:59;;;;;;;;;;;;;;;;;;5052049;28;4591;-64
2023/03/31 00:48:26;;;;;;;;;;;;;;;;;;5057183;28;4699;-62
2023/03/31 00:50:52;;;;;;;;;;;;;;;;;;5085403;28;4984;-66
2023/03/31 00:53:18;;;;;;;;;;;;;;;;;;5054921;28;4615;-61
2023/03/31 00:55:53;;;;;;;;;;;;;;;;;;5057588;28;1159;-61
2023/03/31 00:58:19;;;;;;;;;;;;;;;;;;5051506;28;4924;-61
2023/03/31 01:00:47;;;;;;;;;;;;;;;;;;5054246;28;4598;-63
2023/03/31 01:03:12;;;;;;;;;;;;;;;;;;5052856;28;4482;-62
2023/03/31 01:05:41;;;;;;;;;;;;;;;;;;5053887;28;4649;-61
2023/03/31 01:08:06;;;;;;;;;;;;;;;;;;5058114;28;4677;-63
2023/03/31 01:10:32;;;;;;;;;;;;;;;;;;5052772;28;2285;-62
2023/03/31 01:12:57;;;;;;;;;;;;;;;;;;5051699;28;4930;-62
2023/03/31 01:15:23;;;;;;;;;;;;;;;;;;5035583;28;4640;-61
2023/03/31 01:17:49;;;;;;;;;;;;;;;;;;5057864;28;4804;-61
2023/03/31 01:20:15;;;;;;;;;;;;;;;;;;5050578;28;4764;-62
2023/03/31 01:22:58;;;;;;;;;;;;;;;;;;5056357;28;3119;-63
2023/03/31 01:25:42;;;;;;;;;;;;;;;;;;5054257;28;5041;-61
2023/03/31 01:28:26;;;;;;;;;;;;;;;;;;5050736;28;4561;-61
2023/03/31 01:31:07;;;;;;;;;;;;;;;;;;5045454;28;4768;-62
2023/03/31 01:33:59;;;;;;;;;;;;;;;;;;5052462;28;4695;-62
2023/03/31 01:36:24;;;;;;;;;;;;;;;;;;5056299;28;4500;-62
2023/03/31 01:38:56;;;;;;;;;;;;;;;;;;5058929;28;4973;-64
2023/03/31 01:41:27;;;;;;;;;;;;;;;;;;5052888;28;4651;-62
2023/03/31 01:44:19;;;;;;;;;;;;;;;;;;5060024;28;3285;-63
2023/03/31 01:46:53;;;;;;;;;;;;;;;;;;5046358;28;4643;-65
2023/03/31 01:49:39;;;;;;;;;;;;;;;;;;5051334;28;5326;-65
2023/03/31 01:52:11;;;;;;;;;;;;;;;;;;5051702;28;5602;-61
2023/03/31 01:54:38;;;;;;;;;;;;;;;;;;5087519;28;5071;-64
2023/03/31 01:57:23;;;;;;;;;;;;;;;;;;5092498;28;4958;-62
2023/03/31 01:59:54;;;;;;;;;;;;;;;;;;5053907;28;4727;-62
2023/03/31 02:02:36;;;;;;;;;;;;;;;;;;5077683;28;4511;-61
2023/03/31 02:05:04;;;;;;;;;;;;;;;;;;5043810;28;4729;-62
2023/03/31 02:07:33;;;;;;;;;;;;;;;;;;5043276;28;1981;-62
2023/03/31 02:10:00;;;;;;;;;;;;;;;;;;5052620;28;4670;-62
2023/03/31 02:12:25;;;;;;;;;;;;;;;;;;5088750;28;4616;-63
2023/03/31 02:14:51;;;;;;;;;;;;;;;;;;5052583;28;5096;-63
2023/03/31 02:17:17;;;;;;;;;;;;;;;;;;5085414;28;4508;-62
2023/03/31 02:19:43;;;;;;;;;;;;;;;;;;5060636;28;3109;-62
2023/03/31 02:22:08;;;;;;;;;;;;;;;;;;5084814;28;4540;-62
2023/03/31 02:24:35;;;;;;;;;;;;;;;;;;5082920;28;5056;-63
2023/03/31 02:27:11;;;;;;;;;;;;;;;;;;5052216;28;5127;-61
2023/03/31 02:29:36;;;;;;;;;;;;;;;;;;5062610;28;4630;-64
2023/03/31 02:32:10;;;;;;;;;;;;;;;;;;5053975;28;4469;-62
2023/03/31 02:34:35;;;;;;;;;;;;;;;;;;5085292;28;1145;-64
2023/03/31 02:37:01;;;;;;;;;;;;;;;;;;5051914;28;4469;-62
2023/03/31 02:39:30;;;;;;;;;;;;;;;;;;5048160;28;4479;-63
2023/03/31 02:41:56;;;;;;;;;;;;;;;;;;5083566;28;4635;-65
2023/03/31 02:44:21;;;;;;;;;;;;;;;;;;5080814;28;4936;-62
2023/03/31 02:46:46;;;;;;;;;;;;;;;;;;5050629;28;1981;-64
2023/03/31 02:49:12;;;;;;;;;;;;;;;;;;5057605;28;4650;-63
2023/03/31 02:51:43;;;;;;;;;;;;;;;;;;5049632;28;4466;-61
2023/03/31 02:54:18;;;;;;;;;;;;;;;;;;5053250;28;4697;-62
2023/03/31 02:56:50;;;;;;;;;;;;;;;;;;5082800;28;4619;-64
2023/03/31 02:59:27;;;;;;;;;;;;;;;;;;5049498;28;4614;-62
2023/03/31 03:01:56;;;;;;;;;;;;;;;;;;5048180;28;2334;-62
2023/03/31 03:04:33;;;;;;;;;;;;;;;;;;5076296;28;5210;-62
2023/03/31 03:07:10;;;;;;;;;;;;;;;;;;5050595;28;5198;-62
2023/03/31 03:09:49;;;;;;;;;;;;;;;;;;5055750;28;5176;-63
2023/03/31 03:12:21;;;;;;;;;;;;;;;;;;5044307;28;5003;-60
2023/03/31 03:15:05;;;;;;;;;;;;;;;;;;5050449;28;4866;-63
2023/03/31 03:17:38;;;;;;;;;;;;;;;;;;5053580;28;5018;-62
2023/03/31 03:20:07;;;;;;;;;;;;;;;;;;5082852;28;4721;-62
2023/03/31 03:22:32;;;;;;;;;;;;;;;;;;5056760;28;1168;-62
2023/03/31 03:24:57;;;;;;;;;;;;;;;;;;5050342;28;5204;-63
2023/03/31 03:27:23;;;;;;;;;;;;;;;;;;5055599;28;5092;-63
2023/03/31 03:29:48;;;;;;;;;;;;;;;;;;5050665;28;5103;-62
2023/03/31 03:32:13;;;;;;;;;;;;;;;;;;5048640;28;4610;-61
2023/03/31 03:34:38;;;;;;;;;;;;;;;;;;5053519;28;3071;-60
2023/03/31 03:37:04;;;;;;;;;;;;;;;;;;5082264;28;4478;-63
2023/03/31 03:39:29;;;;;;;;;;;;;;;;;;5048398;28;4447;-62
2023/03/31 03:41:55;;;;;;;;;;;;;;;;;;5050819;28;4773;-61
2023/03/31 03:44:20;;;;;;;;;;;;;;;;;;5062068;28;5088;-60
2023/03/31 03:46:45;;;;;;;;;;;;;;;;;;5054746;28;2007;-66
2023/03/31 03:49:10;;;;;;;;;;;;;;;;;;5060044;28;4931;-62
2023/03/31 03:51:36;;;;;;;;;;;;;;;;;;5059896;28;5005;-62
2023/03/31 03:54:01;;;;;;;;;;;;;;;;;;5055855;28;4717;-62
2023/03/31 03:56:27;;;;;;;;;;;;;;;;;;5056089;28;4465;-62
2023/03/31 03:58:52;;;;;;;;;;;;;;;;;;5051035;28;2832;-61
2023/03/31 04:01:17;;;;;;;;;;;;;;;;;;5047626;28;4589;-61
2023/03/31 04:03:43;;;;;;;;;;;;;;;;;;5054732;28;4517;-61
2023/03/31 04:06:08;;;;;;;;;;;;;;;;;;5056086;28;5840;-61
2023/03/31 04:08:33;;;;;;;;;;;;;;;;;;5055186;28;4596;-61
2023/03/31 04:10:58;;;;;;;;;;;;;;;;;;5048924;28;3249;-62
2023/03/31 04:13:24;;;;;;;;;;;;;;;;;;5050389;28;4421;-62
2023/03/31 04:15:49;;;;;;;;;;;;;;;;;;5046946;28;5214;-61
2023/03/31 04:18:23;;;;;;;;;;;;;;;;;;5047967;28;4533;-63
2023/03/31 04:21:02;;;;;;;;;;;;;;;;;;5076278;28;5004;-62
2023/03/31 04:23:31;;;;;;;;;;;;;;;;;;5080763;28;4518;-61
2023/03/31 04:25:57;;;;;;;;;;;;;;;;;;5048283;28;1967;-69
2023/03/31 04:28:22;;;;;;;;;;;;;;;;;;5053585;28;4561;-62
2023/03/31 04:30:47;;;;;;;;;;;;;;;;;;5053885;28;4931;-61
2023/03/31 04:33:14;;;;;;;;;;;;;;;;;;5079103;28;4565;-62
2023/03/31 04:35:48;;;;;;;;;;;;;;;;;;5053699;28;4856;-62
2023/03/31 04:38:17;;;;;;;;;;;;;;;;;;5047335;28;4658;-62
2023/03/31 04:40:44;;;;;;;;;;;;;;;;;;5060756;28;2956;-61
2023/03/31 04:43:09;;;;;;;;;;;;;;;;;;5047887;28;4593;-61
2023/03/31 04:45:34;;;;;;;;;;;;;;;;;;5045266;28;4928;-63
2023/03/31 04:48:00;;;;;;;;;;;;;;;;;;5049464;28;5547;-61
2023/03/31 04:50:25;;;;;;;;;;;;;;;;;;5046981;28;4506;-65
2023/03/31 04:52:50;;;;;;;;;;;;;;;;;;5046603;28;3189;-62
2023/03/31 04:55:15;;;;;;;;;;;;;;;;;;5051392;28;5113;-64
2023/03/31 04:57:41;;;;;;;;;;;;;;;;;;5047300;28;4482;-63
2023/03/31 05:00:06;;;;;;;;;;;;;;;;;;5052442;28;5344;-61
2023/03/31 05:02:32;;;;;;;;;;;;;;;;;;5043884;28;4909;-62
2023/03/31 05:04:57;;;;;;;;;;;;;;;;;;5054851;28;4807;-64
2023/03/31 05:07:22;;;;;;;;;;;;;;;;;;5057273;28;4421;-62
2023/03/31 05:09:48;;;;;;;;;;;;;;;;;;5050431;28;4457;-63
2023/03/31 05:12:13;;;;;;;;;;;;;;;;;;5047149;28;4751;-62
2023/03/31 05:14:38;;;;;;;;;;;;;;;;;;5053987;28;4502;-61
2023/03/31 05:17:03;;;;;;;;;;;;;;;;;;5053976;28;4445;-61
2023/03/31 05:19:29;;;;;;;;;;;;;;;;;;5047800;28;1142;-61
2023/03/31 05:21:54;;;;;;;;;;;;;;;;;;5060380;28;5086;-63
2023/03/31 05:24:19;;;;;;;;;;;;;;;;;;5079610;28;4441;-61
2023/03/31 05:26:48;;;;;;;;;;;;;;;;;;5053257;28;4882;-61
2023/03/31 05:29:15;;;;;;;;;;;;;;;;;;5058467;28;4442;-63
2023/03/31 05:31:40;;;;;;;;;;;;;;;;;;5052729;28;3314;-64
2023/03/31 05:34:05;;;;;;;;;;;;;;;;;;5046945;28;4656;-65
2023/03/31 05:36:31;;;;;;;;;;;;;;;;;;5046256;28;5107;-65
2023/03/31 05:38:56;;;;;;;;;;;;;;;;;;5053030;28;4914;-62
2023/03/31 05:41:21;;;;;;;;;;;;;;;;;;5053579;28;5050;-63
2023/03/31 05:43:47;;;;;;;;;;;;;;;;;;5066179;28;3411;-66
2023/03/31 05:46:12;;;;;;;;;;;;;;;;;;5053551;28;4422;-62
2023/03/31 05:48:38;;;;;;;;;;;;;;;;;;5042041;28;4575;-69
2023/03/31 05:51:03;;;;;;;;;;;;;;;;;;5047632;28;4725;-62
2023/03/31 05:53:28;;;;;;;;;;;;;;;;;;5049182;28;4509;-62
2023/03/31 05:55:57;;;;;;;;;;;;;;;;;;5058663;28;3199;-64
2023/03/31 05:58:22;;;;;;;;;;;;;;;;;;5057327;28;4711;-62
2023/03/31 06:00:48;;;;;;;;;;;;;;;;;;5044094;28;4610;-64
2023/03/31 06:03:13;;;;;;;;;;;;;;;;;;5048638;28;4575;-63
2023/03/31 06:05:40;;;;;;;;;;;;;;;;;;5053113;28;4769;-61
2023/03/31 06:08:06;;;;;;;;;;;;;;;;;;5059090;28;5720;-68
2023/03/31 06:10:31;;;;;;;;;;;;;;;;;;5047833;28;3356;-67
2023/03/31 06:12:57;;;;;;;;;;;;;;;;;;5084618;28;4671;-64
2023/03/31 06:15:22;;;;;;;;;;;;;;;;;;5047001;28;4663;-62
2023/03/31 06:17:47;;;;;;;;;;;;;;;;;;5066573;28;5033;-62
2023/03/31 06:20:13;;;;;;;;;;;;;;;;;;5054147;28;4648;-63
2023/03/31 06:22:38;;;;;;;;;;;;;;;;;;5052096;28;1379;-63
2023/03/31 06:25:03;;;;;;;;;;;;;;;;;;5052751;28;4443;-61
2023/03/31 06:27:29;;;;;;;;;;;;;;;;;;5049422;28;4487;-62
2023/03/31 06:29:54;;;;;;;;;;;;;;;;;;5057127;28;4904;-62
2023/03/31 06:32:20;;;;;;;;;;;;;;;;;;5050246;28;5061;-61
2023/03/31 06:34:45;;;;;;;;;;;;;;;;;;5055128;28;1189;-63
2023/03/31 06:37:10;;;;;;;;;;;;;;;;;;5053939;28;4538;-61
2023/03/31 06:39:36;;;;;;;;;;;;;;;;;;5048504;28;5086;-61
2023/03/31 06:42:01;;;;;;;;;;;;;;;;;;5051618;28;4531;-63
2023/03/31 06:44:26;;;;;;;;;;;;;;;;;;5050689;28;4932;-70
2023/03/31 06:46:52;;;;;;;;;;;;;;;;;;5057434;28;2232;-64
2023/03/31 06:49:17;;;;;;;;;;;;;;;;;;5043004;28;4416;-61
2023/03/31 06:51:42;;;;;;;;;;;;;;;;;;5051425;28;4863;-66
2023/03/31 06:54:07;;;;;;;;;;;;;;;;;;5052201;28;4488;-62
2023/03/31 06:56:33;;;;;;;;;;;;;;;;;;5055113;28;5849;-61
2023/03/31 06:58:58;;;;;;;;;;;;;;;;;;5054081;28;1232;-61
2023/03/31 07:01:23;;;;;;;;;;;;;;;;;;5059341;28;5236;-61
2023/03/31 07:03:49;;;;;;;;;;;;;;;;;;5040315;28;4717;-65
2023/03/31 07:06:14;;;;;;;;;;;;;;;;;;5063022;28;4524;-65
2023/03/31 07:08:40;;;;;;;;;;;;;;;;;;5048768;28;4647;-65
2023/03/31 07:11:05;;;;;;;;;;;;;;;;;;5047997;28;5123;-66
2023/03/31 07:13:30;;;;;;;;;;;;;;;;;;5061561;28;1121;-65
2023/03/31 07:15:55;;;;;;;;;;;;;;;;;;5059792;28;4917;-66
2023/03/31 07:18:24;;;;;;;;;;;;;;;;;;5049512;28;4531;-62
2023/03/31 07:20:50;;;;;;;;;;;;;;;;;;5049560;28;4466;-66
2023/03/31 07:23:15;;;;;;;;;;;;;;;;;;5047528;28;4502;-65
2023/03/31 07:25:40;;;;;;;;;;;;;;;;;;5051504;28;3250;-63
2023/03/31 07:28:05;;;;;;;;;;;;;;;;;;5063540;28;4445;-61
2023/03/31 07:30:31;;;;;;;;;;;;;;;;;;5055812;28;5356;-63
2023/03/31 07:32:56;;;;;;;;;;;;;;;;;;5055299;28;4506;-62
2023/03/31 07:35:22;;;;;;;;;;;;;;;;;;5051930;28;4971;-62
2023/03/31 07:37:47;;;;;;;;;;;;;;;;;;5053315;28;3425;-62
2023/03/31 07:40:17;;;;;;;;;;;;;;;;;;5056748;28;4461;-62
2023/03/31 07:42:42;;;;;;;;;;;;;;;;;;5053880;28;4911;-62
2023/03/31 07:45:08;;;;;;;;;;;;;;;;;;5049569;28;4463;-62
2023/03/31 07:47:33;;;;;;;;;;;;;;;;;;5052169;28;4619;-62
2023/03/31 07:49:58;;;;;;;;;;;;;;;;;;5045617;28;3335;-63
2023/03/31 07:52:23;;;;;;;;;;;;;;;;;;5040271;28;4561;-64
2023/03/31 07:54:49;;;;;;;;;;;;;;;;;;5052423;28;4617;-62
2023/03/31 07:57:16;;;;;;;;;;;;;;;;;;5037269;28;5020;-62
2023/03/31 07:59:41;;;;;;;;;;;;;;;;;;5039755;28;4869;-62
2023/03/31 08:02:08;;;;;;;;;;;;;;;;;;5037375;28;4554;-64
2023/03/31 08:04:33;;;;;;;;;;;;;;;;;;5042912;28;4670;-62
2023/03/31 08:06:59;;;;;;;;;;;;;;;;;;5047584;28;4468;-61
2023/03/31 08:09:24;;;;;;;;;;;;;;;;;;5047440;28;4616;-63
2023/03/31 08:11:50;;;;;;;;;;;;;;;;;;5048036;28;4566;-62
2023/03/31 08:14:15;;;;;;;;;;;;;;;;;;5035119;28;5245;-62
2023/03/31 08:16:40;;;;;;;;;;;;;;;;;;5041057;28;3108;-63
2023/03/31 08:19:05;;;;;;;;;;;;;;;;;;5040727;28;4485;-63
2023/03/31 08:21:31;;;;;;;;;;;;;;;;;;5036472;28;4494;-66
2023/03/31 08:23:56;;;;;;;;;;;;;;;;;;5044930;28;4483;-67
2023/03/31 08:26:23;;;;;;;;;;;;;;;;;;5042929;28;4725;-66
2023/03/31 08:28:48;;;;;;;;;;;;;;;;;;5039107;28;3269;-61
2023/03/31 08:31:15;;;;;;;;;;;;;;;;;;5045169;28;4516;-62
2023/03/31 08:33:40;;;;;;;;;;;;;;;;;;5040289;28;5200;-62
2023/03/31 08:36:07;;;;;;;;;;;;;;;;;;5041135;28;4694;-62
2023/03/31 08:38:33;;;;;;;;;;;;;;;;;;5041161;28;4849;-62
2023/03/31 08:41:01;;;;;;;;;;;;;;;;;;5041102;28;3333;-65
2023/03/31 08:43:29;;;;;;;;;;;;;;;;;;5045913;28;5194;-64
2023/03/31 08:45:55;;;;;;;;;;;;;;;;;;5047608;28;4647;-60
2023/03/31 08:48:24;;;;;;;;;;;;;;;;;;5054224;28;4908;-61
2023/03/31 08:50:55;;;;;;;;;;;;;;;;;;5065077;28;5934;-65
2023/03/31 08:53:40;;;;;;;;;;;;;;;;;;5041578;28;4515;-61
2023/03/31 08:56:06;;;;;;;;;;;;;;;;;;5035012;28;5008;-61
2023/03/31 08:58:38;;;;;;;;;;;;;;;;;;5069407;28;2076;-60
2023/03/31 09:01:04;;;;;;;;;;;;;;;;;;5045170;28;4622;-59
2023/03/31 09:03:32;;;;;;;;;;;;;;;;;;5043642;28;5121;-59
2023/03/31 09:06:01;;;;;;;;;;;;;;;;;;5049970;28;4796;-60
2023/03/31 09:08:32;;;;;;;;;;;;;;;;;;5039879;28;5071;-61
2023/03/31 09:11:02;;;;;;;;;;;;;;;;;;5077652;28;1112;-60
2023/03/31 09:13:44;;;;;;;;;;;;;;;;;;5044321;28;5061;-55
2023/03/31 09:16:28;;;;;;;;;;;;;;;;;;5078103;28;4663;-56
2023/03/31 09:18:54;;;;;;;;;;;;;;;;;;5049770;28;4638;-55
2023/03/31 09:21:30;;;;;;;;;;;;;;;;;;5050509;28;4852;-56
2023/03/31 09:24:00;;;;;;;;;;;;;;;;;;5081014;28;4907;-53
2023/03/31 09:26:28;;;;;;;;;;;;;;;;;;5077112;28;5334;-55
2023/03/31 09:28:53;;;;;;;;;;;;;;;;;;5050529;28;3332;-51
2023/03/31 09:31:19;;;;;;;;;;;;;;;;;;5082800;28;4415;-47
2023/03/31 09:33:44;;;;;;;;;;;;;;;;;;5029460;28;4464;-53
2023/03/31 09:36:17;;;;;;;;;;;;;;;;;;5048980;28;4908;-51
2023/03/31 09:38:42;;;;;;;;;;;;;;;;;;5050480;28;5310;-50
2023/03/31 09:41:07;;;;;;;;;;;;;;;;;;5050021;28;4986;-50
2023/03/31 09:43:37;;;;;;;;;;;;;;;;;;5051004;28;1176;-50
2023/03/31 09:46:02;;;;;;;;;;;;;;;;;;5050841;28;5022;-53
2023/03/31 09:48:28;;;;;;;;;;;;;;;;;;5050706;28;4434;-52
2023/03/31 09:51:00;;;;;;;;;;;;;;;;;;5065476;28;4608;-52
2023/03/31 09:53:33;;;;;;;;;;;;;;;;;;5050036;28;4605;-50
2023/03/31 09:56:03;;;;;;;;;;;;;;;;;;5054519;28;1203;-51
2023/03/31 09:58:28;;;;;;;;;;;;;;;;;;5048669;28;4995;-49
2023/03/31 10:01:03;;;;;;;;;;;;;;;;;;5049901;28;4998;-51
2023/03/31 10:03:29;;;;;;;;;;;;;;;;;;5032657;28;4463;-50
2023/03/31 10:05:55;;;;;;;;;;;;;;;;;;5046395;28;5241;-53
2023/03/31 10:08:20;;;;;;;;;;;;;;;;;;5067795;28;4459;-53
2023/03/31 10:10:47;;;;;;;;;;;;;;;;;;5033542;28;1435;-53
2023/03/31 10:13:14;;;;;;;;;;;;;;;;;;5047051;28;4528;-51
2023/03/31 10:15:39;;;;;;;;;;;;;;;;;;5048005;28;5002;-50
2023/03/31 10:18:05;;;;;;;;;;;;;;;;;;5048077;28;4483;-50
2023/03/31 10:20:35;;;;;;;;;;;;;;;;;;5049707;28;4497;-53
2023/03/31 10:23:01;;;;;;;;;;;;;;;;;;5049691;28;4528;-50
2023/03/31 10:25:26;;;;;;;;;;;;;;;;;;5048486;28;1864;-50
2023/03/31 10:27:52;;;;;;;;;;;;;;;;;;5047643;28;4944;-52
2023/03/31 10:30:22;;;;;;;;;;;;;;;;;;5048904;28;4468;-53
2023/03/31 10:32:47;;;;;;;;;;;;;;;;;;5069425;28;5123;-54
2023/03/31 10:35:18;;;;;;;;;;;;;;;;;;5040915;28;5063;-53
2023/03/31 10:37:44;;;;;;;;;;;;;;;;;;5050068;28;1065;-52
2023/03/31 10:40:13;;;;;;;;;;;;;;;;;;5049001;28;4453;-52
2023/03/31 10:42:39;;;;;;;;;;;;;;;;;;5047298;28;4415;-53
2023/03/31 10:45:30;;;;;;;;;;;;;;;;;;5064665;28;4513;-49
2023/03/31 10:47:57;;;;;;;;;;;;;;;;;;5045000;28;5085;-54
2023/03/31 10:50:25;;;;;;;;;;;;;;;;;;5048849;28;4686;-53
2023/03/31 10:52:51;;;;;;;;;;;;;;;;;;5049569;28;1111;-51
2023/03/31 10:55:26;;;;;;;;;;;;;;;;;;5049152;28;4561;-54
2023/03/31 10:57:55;;;;;;;;;;;;;;;;;;5045114;28;5083;-51
2023/03/31 11:00:31;;;;;;;;;;;;;;;;;;5027816;28;4860;-51
2023/03/31 11:03:15;;;;;;;;;;;;;;;;;;5077883;28;4449;-52
2023/03/31 11:05:59;;;;;;;;;;;;;;;;;;5033001;28;5013;-51
2023/03/31 11:08:31;;;;;;;;;;;;;;;;;;5034426;28;4885;-52
2023/03/31 11:10:59;;;;;;;;;;;;;;;;;;5081481;28;1187;-54
2023/03/31 11:13:25;;;;;;;;;;;;;;;;;;5048958;28;5093;-53
2023/03/31 11:16:00;;;;;;;;;;;;;;;;;;5048470;28;4399;-52
2023/03/31 11:18:34;;;;;;;;;;;;;;;;;;5047734;28;4445;-54
2023/03/31 11:21:15;;;;;;;;;;;;;;;;;;5048599;28;4991;-51
2023/03/31 11:23:41;;;;;;;;;;;;;;;;;;5048656;28;4652;-52
2023/03/31 11:26:10;;;;;;;;;;;;;;;;;;5047638;28;4647;-53
2023/03/31 11:28:44;;;;;;;;;;;;;;;;;;5043770;28;3171;-53
2023/03/31 11:31:29;;;;;;;;;;;;;;;;;;5045178;28;4655;-50
2023/03/31 11:34:04;;;;;;;;;;;;;;;;;;5068918;28;4614;-57
2023/03/31 11:36:35;;;;;;;;;;;;;;;;;;5046599;28;4429;-51
2023/03/31 11:39:07;;;;;;;;;;;;;;;;;;5048044;28;4680;-51
2023/03/31 11:41:51;;;;;;;;;;;;;;;;;;5047407;28;4419;-53
2023/03/31 11:44:17;;;;;;;;;;;;;;;;;;5031259;28;4847;-51
2023/03/31 11:46:44;;;;;;;;;;;;;;;;;;5080729;28;1918;-51
2023/03/31 11:49:25;;;;;;;;;;;;;;;;;;5046557;28;5032;-52
2023/03/31 11:51:55;;;;;;;;;;;;;;;;;;5060813;28;4482;-52
2023/03/31 11:54:31;;;;;;;;;;;;;;;;;;5028260;28;5026;-51
2023/03/31 11:56:57;;;;;;;;;;;;;;;;;;5044923;28;4942;-57
2023/03/31 11:59:26;;;;;;;;;;;;;;;;;;5046674;28;4959;-52
2023/03/31 12:02:14;;;;;;;;;;;;;;;;;;5076378;28;1515;-50
2023/03/31 12:04:41;;;;;;;;;;;;;;;;;;5028230;28;5027;-52
2023/03/31 12:07:15;;;;;;;;;;;;;;;;;;5071314;28;4415;-51
2023/03/31 12:09:41;;;;;;;;;;;;;;;;;;5047084;28;4476;-48
2023/03/31 12:12:09;;;;;;;;;;;;;;;;;;5048029;28;4446;-51
2023/03/31 12:14:47;;;;;;;;;;;;;;;;;;5079580;28;4620;-48
2023/03/31 12:17:13;;;;;;;;;;;;;;;;;;5079810;28;5045;-52
2023/03/31 12:19:41;;;;;;;;;;;;;;;;;;5047982;28;1078;-50
2023/03/31 12:22:09;;;;;;;;;;;;;;;;;;5047780;28;4387;-48
2023/03/31 12:24:35;;;;;;;;;;;;;;;;;;5079253;28;4415;-51
2023/03/31 12:27:00;;;;;;;;;;;;;;;;;;5029784;28;5345;-54
2023/03/31 12:29:28;;;;;;;;;;;;;;;;;;5047445;28;4939;-52
2023/03/31 12:31:54;;;;;;;;;;;;;;;;;;5043690;28;1515;-51
2023/03/31 12:34:20;;;;;;;;;;;;;;;;;;5031961;28;4954;-52
2023/03/31 12:37:04;;;;;;;;;;;;;;;;;;5079196;28;4661;-53
2023/03/31 12:39:36;;;;;;;;;;;;;;;;;;5051215;28;4604;-53
2023/03/31 12:42:13;;;;;;;;;;;;;;;;;;5083448;28;4896;-51
2023/03/31 12:44:42;;;;;;;;;;;;;;;;;;5051542;28;5075;-52
2023/03/31 12:47:07;;;;;;;;;;;;;;;;;;5051115;28;5016;-51
2023/03/31 12:49:41;;;;;;;;;;;;;;;;;;5050340;28;3378;-51
2023/03/31 12:52:07;;;;;;;;;;;;;;;;;;5076015;28;4667;-52
2023/03/31 12:54:32;;;;;;;;;;;;;;;;;;5079297;28;5071;-48
2023/03/31 12:57:00;;;;;;;;;;;;;;;;;;5043674;28;4444;-49
2023/03/31 12:59:32;;;;;;;;;;;;;;;;;;5051212;28;5436;-50
2023/03/31 13:02:16;;;;;;;;;;;;;;;;;;5047267;28;3149;-50
2023/03/31 13:04:41;;;;;;;;;;;;;;;;;;5040182;28;6007;-53
2023/03/31 13:07:21;;;;;;;;;;;;;;;;;;5046787;28;5061;-54
2023/03/31 13:09:51;;;;;;;;;;;;;;;;;;5078312;28;4673;-56
2023/03/31 13:12:21;;;;;;;;;;;;;;;;;;5067232;28;4791;-55
2023/03/31 13:14:47;;;;;;;;;;;;;;;;;;5046269;28;4539;-56
2023/03/31 13:17:12;;;;;;;;;;;;;;;;;;5049102;28;4890;-53
2023/03/31 13:19:38;;;;;;;;;;;;;;;;;;5048340;28;3235;-54
2023/03/31 13:22:04;;;;;;;;;;;;;;;;;;5083127;28;4581;-55
2023/03/31 13:24:30;;;;;;;;;;;;;;;;;;5047392;28;4534;-55
2023/03/31 13:26:56;;;;;;;;;;;;;;;;;;5081146;28;4582;-54
2023/03/31 13:29:23;;;;;;;;;;;;;;;;;;5048204;28;5136;-47
2023/03/31 13:32:00;;;;;;;;;;;;;;;;;;5057828;28;3389;-52
2023/03/31 13:34:30;;;;;;;;;;;;;;;;;;5048877;28;5070;-52
2023/03/31 13:36:55;;;;;;;;;;;;;;;;;;5075311;28;4440;-50
2023/03/31 13:39:33;;;;;;;;;;;;;;;;;;5042102;28;5159;-50
2023/03/31 13:42:01;;;;;;;;;;;;;;;;;;5043906;28;4921;-49
2023/03/31 13:44:32;;;;;;;;;;;;;;;;;;5033542;28;5233;-50
2023/03/31 13:46:57;;;;;;;;;;;;;;;;;;5039687;28;3343;-49
2023/03/31 13:49:41;;;;;;;;;;;;;;;;;;5044724;28;4451;-50
2023/03/31 13:52:09;;;;;;;;;;;;;;;;;;5040947;28;5003;-49
2023/03/31 13:54:53;;;;;;;;;;;;;;;;;;5047674;28;4502;-51
2023/03/31 13:57:26;;;;;;;;;;;;;;;;;;5043563;28;5118;-50
2023/03/31 13:59:54;;;;;;;;;;;;;;;;;;5081794;28;4867;-49
2023/03/31 14:02:19;;;;;;;;;;;;;;;;;;5038995;28;4686;-51
2023/03/31 14:04:51;;;;;;;;;;;;;;;;;;5038264;28;4638;-51
2023/03/31 14:07:20;;;;;;;;;;;;;;;;;;5047825;28;4738;-52
2023/03/31 14:09:48;;;;;;;;;;;;;;;;;;5071520;28;4587;-51
2023/03/31 14:12:29;;;;;;;;;;;;;;;;;;5048352;28;4607;-50
2023/03/31 14:14:54;;;;;;;;;;;;;;;;;;5048158;28;4429;-50
2023/03/31 14:17:21;;;;;;;;;;;;;;;;;;5047592;28;4588;-51
2023/03/31 14:19:50;;;;;;;;;;;;;;;;;;5048260;28;1041;-51
2023/03/31 14:22:28;;;;;;;;;;;;;;;;;;5063101;28;5162;-50
2023/03/31 14:24:53;;;;;;;;;;;;;;;;;;5062895;28;4613;-48
2023/03/31 14:27:19;;;;;;;;;;;;;;;;;;5063031;28;4628;-52
2023/03/31 14:29:50;;;;;;;;;;;;;;;;;;5047899;28;4937;-48
2023/03/31 14:32:28;;;;;;;;;;;;;;;;;;5043069;28;5537;-49
2023/03/31 14:35:02;;;;;;;;;;;;;;;;;;5038250;28;1136;-49
2023/03/31 14:37:28;;;;;;;;;;;;;;;;;;5049894;28;4974;-50
2023/03/31 14:39:55;;;;;;;;;;;;;;;;;;5048963;28;4615;-51
2023/03/31 14:42:21;;;;;;;;;;;;;;;;;;5080697;28;4564;-49
2023/03/31 14:44:47;;;;;;;;;;;;;;;;;;5049533;28;5305;-49
2023/03/31 14:47:13;;;;;;;;;;;;;;;;;;5047261;28;4955;-49
2023/03/31 14:49:38;;;;;;;;;;;;;;;;;;5049491;28;1108;-53
2023/03/31 14:52:10;;;;;;;;;;;;;;;;;;5049295;28;5131;-51
2023/03/31 14:54:37;;;;;;;;;;;;;;;;;;5047852;28;4938;-50
2023/03/31 14:57:03;;;;;;;;;;;;;;;;;;5047898;28;4859;-50
2023/03/31 14:59:29;;;;;;;;;;;;;;;;;;5080163;28;4616;-51
2023/03/31 15:01:58;;;;;;;;;;;;;;;;;;5046009;28;1675;-54
2023/03/31 15:04:24;;;;;;;;;;;;;;;;;;5044332;28;4948;-53
2023/03/31 15:06:49;;;;;;;;;;;;;;;;;;5060704;28;5127;-50
2023/03/31 15:09:25;;;;;;;;;;;;;;;;;;5060746;28;4709;-50
2023/03/31 15:11:56;;;;;;;;;;;;;;;;;;5061832;28;4458;-48
2023/03/31 15:14:21;;;;;;;;;;;;;;;;;;5048334;28;4862;-49
2023/03/31 15:16:48;;;;;;;;;;;;;;;;;;5065126;28;1046;-51
2023/03/31 15:19:14;;;;;;;;;;;;;;;;;;5047689;28;4417;-50
2023/03/31 15:21:39;;;;;;;;;;;;;;;;;;5030204;28;5108;-51
2023/03/31 15:24:05;;;;;;;;;;;;;;;;;;5048705;28;5053;-51
2023/03/31 15:26:34;;;;;;;;;;;;;;;;;;5047177;28;4832;-50
2023/03/31 15:29:11;;;;;;;;;;;;;;;;;;5048243;28;5023;-51
2023/03/31 15:31:39;;;;;;;;;;;;;;;;;;5048784;28;1579;-50
2023/03/31 15:34:12;;;;;;;;;;;;;;;;;;5046010;28;4652;-48
2023/03/31 15:36:38;;;;;;;;;;;;;;;;;;5061936;28;5237;-49
2023/03/31 15:39:03;;;;;;;;;;;;;;;;;;5047086;28;5065;-50
2023/03/31 15:41:28;;;;;;;;;;;;;;;;;;5045196;28;4508;-50
2023/03/31 15:44:20;;;;;;;;;;;;;;;;;;5047442;28;1215;-51
2023/03/31 15:46:49;;;;;;;;;;;;;;;;;;5033630;28;4933;-49
2023/03/31 15:49:24;;;;;;;;;;;;;;;;;;5047942;28;5133;-49
2023/03/31 15:51:50;;;;;;;;;;;;;;;;;;5046955;28;4682;-52
2023/03/31 15:54:34;;;;;;;;;;;;;;;;;;5048224;28;4615;-50
2023/03/31 15:57:00;;;;;;;;;;;;;;;;;;5046480;28;5084;-51
2023/03/31 15:59:26;;;;;;;;;;;;;;;;;;5079455;28;4509;-49
2023/03/31 16:01:52;;;;;;;;;;;;;;;;;;5047660;28;1713;-50
2023/03/31 16:04:17;;;;;;;;;;;;;;;;;;5028040;28;4967;-51
2023/03/31 16:06:46;;;;;;;;;;;;;;;;;;5027821;28;4956;-53
2023/03/31 16:09:14;;;;;;;;;;;;;;;;;;5037221;28;4946;-50
2023/03/31 16:11:40;;;;;;;;;;;;;;;;;;5047697;28;4726;-50
2023/03/31 16:14:17;;;;;;;;;;;;;;;;;;5046588;28;4427;-48
2023/03/31 16:16:49;;;;;;;;;;;;;;;;;;5048537;28;1139;-51
2023/03/31 16:19:14;;;;;;;;;;;;;;;;;;5047875;28;4765;-48
2023/03/31 16:21:43;;;;;;;;;;;;;;;;;;5047926;28;4965;-48
2023/03/31 16:24:08;;;;;;;;;;;;;;;;;;5062993;28;4433;-47
2023/03/31 16:26:34;;;;;;;;;;;;;;;;;;5047621;28;4454;-52
2023/03/31 16:28:59;;;;;;;;;;;;;;;;;;5063465;28;901;-49
2023/03/31 16:31:28;;;;;;;;;;;;;;;;;;5047493;28;4492;-50
2023/03/31 16:33:54;;;;;;;;;;;;;;;;;;5031837;28;4437;-50
2023/03/31 16:36:19;;;;;;;;;;;;;;;;;;5046134;28;4489;-52
2023/03/31 16:38:45;;;;;;;;;;;;;;;;;;5048032;28;4395;-49
2023/03/31 16:41:13;;;;;;;;;;;;;;;;;;5047074;28;5106;-50
2023/03/31 16:43:38;;;;;;;;;;;;;;;;;;5079836;28;1167;-50
2023/03/31 16:46:03;;;;;;;;;;;;;;;;;;5047053;28;4385;-50
2023/03/31 16:48:29;;;;;;;;;;;;;;;;;;5047637;28;4765;-48
2023/03/31 16:50:56;;;;;;;;;;;;;;;;;;5073084;28;4691;-50
2023/03/31 16:53:26;;;;;;;;;;;;;;;;;;5041111;28;4677;-50
2023/03/31 16:55:51;;;;;;;;;;;;;;;;;;5046314;28;1144;-48
2023/03/31 16:58:17;;;;;;;;;;;;;;;;;;5042503;28;4622;-48
2023/03/31 17:00:42;;;;;;;;;;;;;;;;;;5045295;28;4431;-49
2023/03/31 17:03:08;;;;;;;;;;;;;;;;;;5034785;28;4436;-49
2023/03/31 17:05:37;;;;;;;;;;;;;;;;;;5035645;28;4911;-48
2023/03/31 17:08:03;;;;;;;;;;;;;;;;;;5045418;28;4999;-51
2023/03/31 17:10:28;;;;;;;;;;;;;;;;;;5062370;28;1747;-51
2023/03/31 17:12:53;;;;;;;;;;;;;;;;;;5047051;28;4983;-50